sensor_id;sensor_type;location;lat;lon;timestamp;temperature;humidity
64549;DHT22;49838;51.798;10.954;2024-03-07T00:00:11;11.30;47.80
64549;DHT22;49838;51.798;10.954;2024-03-07T00:02:45;11.20;47.70
64549;DHT22;49838;51.798;10.954;2024-03-07T00:05:13;11.30;47.70
64549;DHT22;49838;51.798;10.954;2024-03-07T00:07:41;11.30;47.70
64549;DHT22;49838;51.798;10.954;2024-03-07T00:10:09;11.30;47.80
64549;DHT22;49838;51.798;10.954;2024-03-07T00:12:38;11.30;47.70
64549;DHT22;49838;51.798;10.954;2024-03-07T00:15:07;11.30;48.40
64549;DHT22;49838;51.798;10.954;2024-03-07T00:17:36;11.40;47.80
64549;DHT22;49838;51.798;10.954;2024-03-07T00:20:06;11.40;47.80
64549;DHT22;49838;51.798;10.954;2024-03-07T00:22:40;11.40;47.80
64549;DHT22;49838;51.798;10.954;2024-03-07T00:25:07;11.40;47.80
64549;DHT22;49838;51.798;10.954;2024-03-07T00:27:37;11.50;47.80
64549;DHT22;49838;51.798;10.954;2024-03-07T00:30:05;11.40;47.80
64549;DHT22;49838;51.798;10.954;2024-03-07T00:32:34;11.40;47.70
64549;DHT22;49838;51.798;10.954;2024-03-07T00:35:06;11.50;47.80
64549;DHT22;49838;51.798;10.954;2024-03-07T00:37:34;11.40;47.80
64549;DHT22;49838;51.798;10.954;2024-03-07T00:40:02;11.40;47.80
64549;DHT22;49838;51.798;10.954;2024-03-07T00:42:30;11.50;47.90
64549;DHT22;49838;51.798;10.954;2024-03-07T00:44:57;11.50;47.80
64549;DHT22;49838;51.798;10.954;2024-03-07T00:47:24;11.50;47.80
64549;DHT22;49838;51.798;10.954;2024-03-07T00:49:51;11.50;47.80
64549;DHT22;49838;51.798;10.954;2024-03-07T00:52:21;11.50;47.80
64549;DHT22;49838;51.798;10.954;2024-03-07T00:54:48;11.50;47.80
64549;DHT22;49838;51.798;10.954;2024-03-07T00:57:15;11.50;47.70
64549;DHT22;49838;51.798;10.954;2024-03-07T00:59:43;11.50;47.70
64549;DHT22;49838;51.798;10.954;2024-03-07T01:02:10;11.50;47.70
64549;DHT22;49838;51.798;10.954;2024-03-07T01:04:37;11.50;47.70
64549;DHT22;49838;51.798;10.954;2024-03-07T01:07:04;11.50;47.70
64549;DHT22;49838;51.798;10.954;2024-03-07T01:09:33;11.50;47.70
64549;DHT22;49838;51.798;10.954;2024-03-07T01:12:01;11.60;47.80
64549;DHT22;49838;51.798;10.954;2024-03-07T01:14:30;11.60;47.70
64549;DHT22;49838;51.798;10.954;2024-03-07T01:16:58;11.60;47.80
64549;DHT22;49838;51.798;10.954;2024-03-07T01:19:25;11.60;47.80
64549;DHT22;49838;51.798;10.954;2024-03-07T01:21:52;11.60;47.70
64549;DHT22;49838;51.798;10.954;2024-03-07T01:24:19;11.60;47.70
64549;DHT22;49838;51.798;10.954;2024-03-07T01:26:49;11.50;47.70
64549;DHT22;49838;51.798;10.954;2024-03-07T01:29:17;11.60;47.70
64549;DHT22;49838;51.798;10.954;2024-03-07T01:31:44;11.50;47.70
64549;DHT22;49838;51.798;10.954;2024-03-07T01:34:11;11.60;47.80
64549;DHT22;49838;51.798;10.954;2024-03-07T01:36:39;11.50;47.70
64549;DHT22;49838;51.798;10.954;2024-03-07T01:39:06;11.50;47.70
64549;DHT22;49838;51.798;10.954;2024-03-07T01:41:33;11.50;47.60
64549;DHT22;49838;51.798;10.954;2024-03-07T01:44:02;11.50;47.60
64549;DHT22;49838;51.798;10.954;2024-03-07T01:46:30;11.50;47.60
64549;DHT22;49838;51.798;10.954;2024-03-07T01:48:57;11.50;47.60
64549;DHT22;49838;51.798;10.954;2024-03-07T01:51:25;11.50;47.60
64549;DHT22;49838;51.798;10.954;2024-03-07T01:53:53;11.50;47.70
64549;DHT22;49838;51.798;10.954;2024-03-07T01:56:21;11.50;47.60
64549;DHT22;49838;51.798;10.954;2024-03-07T01:58:48;11.50;47.70
64549;DHT22;49838;51.798;10.954;2024-03-07T02:01:19;11.50;47.60
64549;DHT22;49838;51.798;10.954;2024-03-07T02:03:47;11.50;47.60
64549;DHT22;49838;51.798;10.954;2024-03-07T02:06:14;11.50;47.60
64549;DHT22;49838;51.798;10.954;2024-03-07T02:08:41;11.50;47.60
64549;DHT22;49838;51.798;10.954;2024-03-07T02:11:09;11.50;47.60
64549;DHT22;49838;51.798;10.954;2024-03-07T02:13:36;11.50;47.60
64549;DHT22;49838;51.798;10.954;2024-03-07T02:16:03;11.50;47.60
64549;DHT22;49838;51.798;10.954;2024-03-07T02:18:32;11.50;47.60
64549;DHT22;49838;51.798;10.954;2024-03-07T02:21:05;11.50;47.60
64549;DHT22;49838;51.798;10.954;2024-03-07T02:23:33;11.60;47.60
64549;DHT22;49838;51.798;10.954;2024-03-07T02:26:00;11.60;47.60
64549;DHT22;49838;51.798;10.954;2024-03-07T02:28:27;11.60;47.40
64549;DHT22;49838;51.798;10.954;2024-03-07T02:30:54;11.50;47.40
64549;DHT22;49838;51.798;10.954;2024-03-07T02:33:22;11.40;47.30
64549;DHT22;49838;51.798;10.954;2024-03-07T02:35:49;11.30;47.40
64549;DHT22;49838;51.798;10.954;2024-03-07T02:38:17;11.40;47.40
64549;DHT22;49838;51.798;10.954;2024-03-07T02:40:45;11.30;47.40
64549;DHT22;49838;51.798;10.954;2024-03-07T02:43:13;11.30;47.50
64549;DHT22;49838;51.798;10.954;2024-03-07T02:45:40;11.30;47.50
64549;DHT22;49838;51.798;10.954;2024-03-07T02:48:07;11.30;47.50
64549;DHT22;49838;51.798;10.954;2024-03-07T02:50:36;11.30;47.50
64549;DHT22;49838;51.798;10.954;2024-03-07T02:53:04;11.30;47.50
64549;DHT22;49838;51.798;10.954;2024-03-07T02:55:35;11.30;47.50
64549;DHT22;49838;51.798;10.954;2024-03-07T02:58:02;11.30;47.50
64549;DHT22;49838;51.798;10.954;2024-03-07T03:00:30;11.30;47.50
64549;DHT22;49838;51.798;10.954;2024-03-07T03:02:57;11.30;47.50
64549;DHT22;49838;51.798;10.954;2024-03-07T03:05:24;11.30;47.50
64549;DHT22;49838;51.798;10.954;2024-03-07T03:07:51;11.30;47.50
64549;DHT22;49838;51.798;10.954;2024-03-07T03:10:22;11.30;47.40
64549;DHT22;49838;51.798;10.954;2024-03-07T03:12:53;11.30;47.40
64549;DHT22;49838;51.798;10.954;2024-03-07T03:15:21;11.30;47.40
64549;DHT22;49838;51.798;10.954;2024-03-07T03:17:49;11.40;47.50
64549;DHT22;49838;51.798;10.954;2024-03-07T03:20:17;11.30;47.40
64549;DHT22;49838;51.798;10.954;2024-03-07T03:22:59;11.30;47.40
64549;DHT22;49838;51.798;10.954;2024-03-07T03:25:28;11.40;47.40
64549;DHT22;49838;51.798;10.954;2024-03-07T03:28:01;11.40;47.40
64549;DHT22;49838;51.798;10.954;2024-03-07T03:30:29;11.40;47.40
64549;DHT22;49838;51.798;10.954;2024-03-07T03:32:58;11.40;47.30
64549;DHT22;49838;51.798;10.954;2024-03-07T03:35:25;11.40;47.30
64549;DHT22;49838;51.798;10.954;2024-03-07T03:37:53;11.40;47.30
64549;DHT22;49838;51.798;10.954;2024-03-07T03:40:20;11.40;47.30
64549;DHT22;49838;51.798;10.954;2024-03-07T03:42:47;11.40;47.30
64549;DHT22;49838;51.798;10.954;2024-03-07T03:45:16;11.50;47.40
64549;DHT22;49838;51.798;10.954;2024-03-07T03:47:43;11.40;47.40
64549;DHT22;49838;51.798;10.954;2024-03-07T03:50:11;11.40;47.40
64549;DHT22;49838;51.798;10.954;2024-03-07T03:52:39;11.40;47.30
64549;DHT22;49838;51.798;10.954;2024-03-07T03:55:08;11.30;47.30
64549;DHT22;49838;51.798;10.954;2024-03-07T03:57:37;11.40;47.50
64549;DHT22;49838;51.798;10.954;2024-03-07T04:00:06;11.40;47.40
64549;DHT22;49838;51.798;10.954;2024-03-07T04:02:40;11.30;47.30
64549;DHT22;49838;51.798;10.954;2024-03-07T04:05:08;11.30;47.30
64549;DHT22;49838;51.798;10.954;2024-03-07T04:07:37;11.30;47.30
64549;DHT22;49838;51.798;10.954;2024-03-07T04:10:05;11.30;47.30
64549;DHT22;49838;51.798;10.954;2024-03-07T04:12:33;11.30;47.30
64549;DHT22;49838;51.798;10.954;2024-03-07T04:15:01;11.30;47.30
64549;DHT22;49838;51.798;10.954;2024-03-07T04:17:30;11.30;47.30
64549;DHT22;49838;51.798;10.954;2024-03-07T04:20:00;11.30;47.40
64549;DHT22;49838;51.798;10.954;2024-03-07T04:22:31;11.20;47.30
64549;DHT22;49838;51.798;10.954;2024-03-07T04:24:58;11.20;47.40
64549;DHT22;49838;51.798;10.954;2024-03-07T04:27:27;11.20;47.40
64549;DHT22;49838;51.798;10.954;2024-03-07T04:29:54;11.20;47.40
64549;DHT22;49838;51.798;10.954;2024-03-07T04:32:22;11.10;47.30
64549;DHT22;49838;51.798;10.954;2024-03-07T04:34:50;11.10;47.30
64549;DHT22;49838;51.798;10.954;2024-03-07T04:37:18;11.10;47.40
64549;DHT22;49838;51.798;10.954;2024-03-07T04:39:45;11.00;47.30
64549;DHT22;49838;51.798;10.954;2024-03-07T04:42:13;11.00;47.30
64549;DHT22;49838;51.798;10.954;2024-03-07T04:44:41;11.00;47.30
64549;DHT22;49838;51.798;10.954;2024-03-07T04:47:08;11.00;47.30
64549;DHT22;49838;51.798;10.954;2024-03-07T04:49:35;11.00;47.30
64549;DHT22;49838;51.798;10.954;2024-03-07T04:52:03;10.90;47.40
64549;DHT22;49838;51.798;10.954;2024-03-07T04:54:33;10.90;48.00
64549;DHT22;49838;51.798;10.954;2024-03-07T04:57:00;10.80;47.30
64549;DHT22;49838;51.798;10.954;2024-03-07T04:59:28;10.80;47.30
64549;DHT22;49838;51.798;10.954;2024-03-07T05:01:57;10.80;47.30
64549;DHT22;49838;51.798;10.954;2024-03-07T05:04:24;10.80;47.30
64549;DHT22;49838;51.798;10.954;2024-03-07T05:06:55;10.70;47.30
64549;DHT22;49838;51.798;10.954;2024-03-07T05:09:23;10.70;47.30
64549;DHT22;49838;51.798;10.954;2024-03-07T05:11:56;10.80;47.40
64549;DHT22;49838;51.798;10.954;2024-03-07T05:14:23;10.80;47.40
64549;DHT22;49838;51.798;10.954;2024-03-07T05:16:51;10.80;47.30
64549;DHT22;49838;51.798;10.954;2024-03-07T05:19:31;10.80;47.30
64549;DHT22;49838;51.798;10.954;2024-03-07T05:21:59;10.90;47.30
64549;DHT22;49838;51.798;10.954;2024-03-07T05:24:26;10.90;47.30
64549;DHT22;49838;51.798;10.954;2024-03-07T05:26:55;10.90;47.30
64549;DHT22;49838;51.798;10.954;2024-03-07T05:29:23;10.90;47.30
64549;DHT22;49838;51.798;10.954;2024-03-07T05:31:50;10.90;47.30
64549;DHT22;49838;51.798;10.954;2024-03-07T05:34:18;10.90;47.20
64549;DHT22;49838;51.798;10.954;2024-03-07T05:36:45;10.90;47.30
64549;DHT22;49838;51.798;10.954;2024-03-07T05:39:13;10.90;47.30
64549;DHT22;49838;51.798;10.954;2024-03-07T05:41:42;10.90;47.30
64549;DHT22;49838;51.798;10.954;2024-03-07T05:44:12;10.90;47.40
64549;DHT22;49838;51.798;10.954;2024-03-07T05:46:40;10.90;47.30
64549;DHT22;49838;51.798;10.954;2024-03-07T05:49:12;10.90;47.30
64549;DHT22;49838;51.798;10.954;2024-03-07T05:51:39;10.90;47.30
64549;DHT22;49838;51.798;10.954;2024-03-07T05:54:07;10.90;47.30
64549;DHT22;49838;51.798;10.954;2024-03-07T05:56:35;10.90;47.30
64549;DHT22;49838;51.798;10.954;2024-03-07T05:59:03;10.90;47.40
64549;DHT22;49838;51.798;10.954;2024-03-07T06:01:32;11.00;47.40
64549;DHT22;49838;51.798;10.954;2024-03-07T06:04:00;10.90;47.30
64549;DHT22;49838;51.798;10.954;2024-03-07T06:06:28;10.90;47.30
64549;DHT22;49838;51.798;10.954;2024-03-07T06:08:57;10.90;47.30
64549;DHT22;49838;51.798;10.954;2024-03-07T06:11:25;10.90;47.30
64549;DHT22;49838;51.798;10.954;2024-03-07T06:13:52;10.90;47.30
64549;DHT22;49838;51.798;10.954;2024-03-07T06:16:19;10.90;47.30
64549;DHT22;49838;51.798;10.954;2024-03-07T06:18:48;10.90;47.60
64549;DHT22;49838;51.798;10.954;2024-03-07T06:21:15;11.00;47.40
64549;DHT22;49838;51.798;10.954;2024-03-07T06:23:42;11.00;47.40
64549;DHT22;49838;51.798;10.954;2024-03-07T06:26:12;11.00;47.50
64549;DHT22;49838;51.798;10.954;2024-03-07T06:28:42;11.00;47.40
64549;DHT22;49838;51.798;10.954;2024-03-07T06:31:11;11.00;47.40
64549;DHT22;49838;51.798;10.954;2024-03-07T06:33:38;11.00;47.40
64549;DHT22;49838;51.798;10.954;2024-03-07T06:36:07;11.10;47.50
64549;DHT22;49838;51.798;10.954;2024-03-07T06:38:34;11.10;47.50
64549;DHT22;49838;51.798;10.954;2024-03-07T06:41:02;11.00;47.40
64549;DHT22;49838;51.798;10.954;2024-03-07T06:43:30;11.00;47.60
64549;DHT22;49838;51.798;10.954;2024-03-07T06:45:58;11.00;47.60
64549;DHT22;49838;51.798;10.954;2024-03-07T06:48:25;11.10;47.70
64549;DHT22;49838;51.798;10.954;2024-03-07T06:50:52;11.00;47.60
64549;DHT22;49838;51.798;10.954;2024-03-07T06:53:21;11.00;47.70
64549;DHT22;49838;51.798;10.954;2024-03-07T06:55:52;11.00;47.70
64549;DHT22;49838;51.798;10.954;2024-03-07T06:58:20;11.00;47.70
64549;DHT22;49838;51.798;10.954;2024-03-07T07:00:48;11.10;47.80
64549;DHT22;49838;51.798;10.954;2024-03-07T07:03:18;11.00;47.90
64549;DHT22;49838;51.798;10.954;2024-03-07T07:05:46;11.00;48.00
64549;DHT22;49838;51.798;10.954;2024-03-07T07:08:13;11.00;48.00
64549;DHT22;49838;51.798;10.954;2024-03-07T07:10:43;11.00;48.10
64549;DHT22;49838;51.798;10.954;2024-03-07T07:13:10;11.10;48.60
64549;DHT22;49838;51.798;10.954;2024-03-07T07:15:39;11.00;48.90
64549;DHT22;49838;51.798;10.954;2024-03-07T07:18:06;11.10;49.30
64549;DHT22;49838;51.798;10.954;2024-03-07T07:20:34;11.00;49.30
64549;DHT22;49838;51.798;10.954;2024-03-07T07:23:01;11.10;49.50
64549;DHT22;49838;51.798;10.954;2024-03-07T07:25:29;11.10;49.70
64549;DHT22;49838;51.798;10.954;2024-03-07T07:27:58;11.10;49.80
64549;DHT22;49838;51.798;10.954;2024-03-07T07:30:26;11.20;49.70
64549;DHT22;49838;51.798;10.954;2024-03-07T07:32:53;11.20;49.70
64549;DHT22;49838;51.798;10.954;2024-03-07T07:35:21;11.20;49.90
64549;DHT22;49838;51.798;10.954;2024-03-07T07:37:50;11.20;50.00
64549;DHT22;49838;51.798;10.954;2024-03-07T07:40:19;11.20;49.80
64549;DHT22;49838;51.798;10.954;2024-03-07T07:42:48;11.20;50.30
64549;DHT22;49838;51.798;10.954;2024-03-07T07:45:20;11.20;50.50
64549;DHT22;49838;51.798;10.954;2024-03-07T07:47:48;11.30;50.40
64549;DHT22;49838;51.798;10.954;2024-03-07T07:50:16;11.30;50.60
64549;DHT22;49838;51.798;10.954;2024-03-07T07:52:45;11.30;50.60
64549;DHT22;49838;51.798;10.954;2024-03-07T07:55:14;11.40;50.50
64549;DHT22;49838;51.798;10.954;2024-03-07T07:57:42;11.40;50.80
64549;DHT22;49838;51.798;10.954;2024-03-07T08:00:11;11.40;50.60
64549;DHT22;49838;51.798;10.954;2024-03-07T08:02:57;11.50;50.50
64549;DHT22;49838;51.798;10.954;2024-03-07T08:05:25;11.60;50.20
64549;DHT22;49838;51.798;10.954;2024-03-07T08:07:54;11.70;50.20
64549;DHT22;49838;51.798;10.954;2024-03-07T08:10:23;11.80;50.20
64549;DHT22;49838;51.798;10.954;2024-03-07T08:12:52;11.90;50.10
64549;DHT22;49838;51.798;10.954;2024-03-07T08:15:19;12.10;50.00
64549;DHT22;49838;51.798;10.954;2024-03-07T08:17:47;12.20;49.90
64549;DHT22;49838;51.798;10.954;2024-03-07T08:20:17;12.30;49.80
64549;DHT22;49838;51.798;10.954;2024-03-07T08:22:46;12.30;49.70
64549;DHT22;49838;51.798;10.954;2024-03-07T08:25:17;12.30;49.60
64549;DHT22;49838;51.798;10.954;2024-03-07T08:27:45;12.20;49.60
64549;DHT22;49838;51.798;10.954;2024-03-07T08:30:14;12.20;49.60
64549;DHT22;49838;51.798;10.954;2024-03-07T08:32:42;12.20;49.60
64549;DHT22;49838;51.798;10.954;2024-03-07T08:35:10;12.30;49.50
64549;DHT22;49838;51.798;10.954;2024-03-07T08:37:39;12.40;49.60
64549;DHT22;49838;51.798;10.954;2024-03-07T08:40:08;12.50;49.50
64549;DHT22;49838;51.798;10.954;2024-03-07T08:42:37;12.50;49.20
64549;DHT22;49838;51.798;10.954;2024-03-07T08:45:04;12.50;49.20
64549;DHT22;49838;51.798;10.954;2024-03-07T08:47:32;12.50;49.20
64549;DHT22;49838;51.798;10.954;2024-03-07T08:50:01;12.40;49.20
64549;DHT22;49838;51.798;10.954;2024-03-07T08:52:32;12.50;49.40
64549;DHT22;49838;51.798;10.954;2024-03-07T08:55:00;12.40;49.30
64549;DHT22;49838;51.798;10.954;2024-03-07T08:57:27;12.30;49.10
64549;DHT22;49838;51.798;10.954;2024-03-07T08:59:55;12.30;49.20
64549;DHT22;49838;51.798;10.954;2024-03-07T09:02:22;12.20;49.10
64549;DHT22;49838;51.798;10.954;2024-03-07T09:04:49;12.20;49.10
64549;DHT22;49838;51.798;10.954;2024-03-07T09:07:16;12.10;48.70
64549;DHT22;49838;51.798;10.954;2024-03-07T09:09:44;12.10;48.80
64549;DHT22;49838;51.798;10.954;2024-03-07T09:12:12;12.30;48.90
64549;DHT22;49838;51.798;10.954;2024-03-07T09:14:40;12.50;49.10
64549;DHT22;49838;51.798;10.954;2024-03-07T09:17:07;12.60;49.00
64549;DHT22;49838;51.798;10.954;2024-03-07T09:19:34;12.60;48.30
64549;DHT22;49838;51.798;10.954;2024-03-07T09:22:01;12.80;48.30
64549;DHT22;49838;51.798;10.954;2024-03-07T09:24:30;12.90;48.20
64549;DHT22;49838;51.798;10.954;2024-03-07T09:26:57;13.00;48.10
64549;DHT22;49838;51.798;10.954;2024-03-07T09:29:26;13.10;47.70
64549;DHT22;49838;51.798;10.954;2024-03-07T09:31:54;13.10;47.50
64549;DHT22;49838;51.798;10.954;2024-03-07T09:34:23;13.30;47.90
64549;DHT22;49838;51.798;10.954;2024-03-07T09:36:51;13.50;48.00
64549;DHT22;49838;51.798;10.954;2024-03-07T09:39:20;13.60;47.90
64549;DHT22;49838;51.798;10.954;2024-03-07T09:41:47;13.80;47.90
64549;DHT22;49838;51.798;10.954;2024-03-07T09:44:17;13.80;47.30
64549;DHT22;49838;51.798;10.954;2024-03-07T09:46:50;13.80;47.40
64549;DHT22;49838;51.798;10.954;2024-03-07T09:49:19;13.80;47.30
64549;DHT22;49838;51.798;10.954;2024-03-07T09:51:47;13.70;46.90
64549;DHT22;49838;51.798;10.954;2024-03-07T09:54:20;13.90;47.50
64549;DHT22;49838;51.798;10.954;2024-03-07T09:56:50;14.10;47.70
64549;DHT22;49838;51.798;10.954;2024-03-07T09:59:20;14.20;46.70
64549;DHT22;49838;51.798;10.954;2024-03-07T10:01:54;14.40;46.70
64549;DHT22;49838;51.798;10.954;2024-03-07T10:04:25;14.60;46.50
64549;DHT22;49838;51.798;10.954;2024-03-07T10:06:56;14.60;44.70
64549;DHT22;49838;51.798;10.954;2024-03-07T10:09:24;14.60;44.20
64549;DHT22;49838;51.798;10.954;2024-03-07T10:11:57;14.60;43.80
64549;DHT22;49838;51.798;10.954;2024-03-07T10:14:25;14.40;42.80
64549;DHT22;49838;51.798;10.954;2024-03-07T10:16:54;14.30;42.00
64549;DHT22;49838;51.798;10.954;2024-03-07T10:19:23;14.10;41.90
64549;DHT22;49838;51.798;10.954;2024-03-07T10:21:50;14.00;42.70
64549;DHT22;49838;51.798;10.954;2024-03-07T10:24:24;14.00;42.90
64549;DHT22;49838;51.798;10.954;2024-03-07T10:26:51;14.00;43.30
64549;DHT22;49838;51.798;10.954;2024-03-07T10:29:18;13.90;43.40
64549;DHT22;49838;51.798;10.954;2024-03-07T10:31:46;13.90;43.20
64549;DHT22;49838;51.798;10.954;2024-03-07T10:34:16;13.90;42.10
64549;DHT22;49838;51.798;10.954;2024-03-07T10:36:43;13.80;40.90
64549;DHT22;49838;51.798;10.954;2024-03-07T10:39:11;13.70;42.00
64549;DHT22;49838;51.798;10.954;2024-03-07T10:41:42;13.70;42.00
64549;DHT22;49838;51.798;10.954;2024-03-07T10:44:15;13.70;42.10
64549;DHT22;49838;51.798;10.954;2024-03-07T10:46:49;13.70;42.00
64549;DHT22;49838;51.798;10.954;2024-03-07T10:49:21;13.60;41.30
64549;DHT22;49838;51.798;10.954;2024-03-07T10:51:54;13.60;41.80
64549;DHT22;49838;51.798;10.954;2024-03-07T10:54:31;13.60;41.10
64549;DHT22;49838;51.798;10.954;2024-03-07T10:57:06;13.60;41.20
64549;DHT22;49838;51.798;10.954;2024-03-07T10:59:49;13.60;41.30
64549;DHT22;49838;51.798;10.954;2024-03-07T11:02:24;13.50;41.10
64549;DHT22;49838;51.798;10.954;2024-03-07T11:05:01;13.50;41.10
64549;DHT22;49838;51.798;10.954;2024-03-07T11:07:33;13.50;41.10
64549;DHT22;49838;51.798;10.954;2024-03-07T11:10:02;13.50;40.90
64549;DHT22;49838;51.798;10.954;2024-03-07T11:12:37;13.60;41.10
64549;DHT22;49838;51.798;10.954;2024-03-07T11:15:07;13.90;41.70
64549;DHT22;49838;51.798;10.954;2024-03-07T11:17:40;14.20;40.40
64549;DHT22;49838;51.798;10.954;2024-03-07T11:20:19;14.20;39.40
64549;DHT22;49838;51.798;10.954;2024-03-07T11:22:47;14.10;40.10
64549;DHT22;49838;51.798;10.954;2024-03-07T11:25:17;14.00;38.40
64549;DHT22;49838;51.798;10.954;2024-03-07T11:27:51;13.90;39.50
64549;DHT22;49838;51.798;10.954;2024-03-07T11:30:19;13.90;39.40
64549;DHT22;49838;51.798;10.954;2024-03-07T11:32:48;13.90;39.70
64549;DHT22;49838;51.798;10.954;2024-03-07T11:35:20;14.00;40.20
64549;DHT22;49838;51.798;10.954;2024-03-07T11:37:56;14.00;39.90
64549;DHT22;49838;51.798;10.954;2024-03-07T11:43:11;14.00;40.00
64549;DHT22;49838;51.798;10.954;2024-03-07T11:45:38;14.10;40.00
64549;DHT22;49838;51.798;10.954;2024-03-07T11:48:10;14.20;40.50
64549;DHT22;49838;51.798;10.954;2024-03-07T11:50:39;14.30;39.20
64549;DHT22;49838;51.798;10.954;2024-03-07T11:53:09;14.30;40.00
64549;DHT22;49838;51.798;10.954;2024-03-07T11:55:37;14.40;39.30
64549;DHT22;49838;51.798;10.954;2024-03-07T11:58:09;14.60;39.30
64549;DHT22;49838;51.798;10.954;2024-03-07T12:00:38;14.70;39.10
64549;DHT22;49838;51.798;10.954;2024-03-07T12:03:08;14.80;38.50
64549;DHT22;49838;51.798;10.954;2024-03-07T12:05:40;14.80;38.70
64549;DHT22;49838;51.798;10.954;2024-03-07T12:08:09;14.80;38.90
64549;DHT22;49838;51.798;10.954;2024-03-07T12:10:37;15.00;39.70
64549;DHT22;49838;51.798;10.954;2024-03-07T12:13:06;15.10;39.90
64549;DHT22;49838;51.798;10.954;2024-03-07T12:15:33;15.20;38.90
64549;DHT22;49838;51.798;10.954;2024-03-07T12:18:02;15.20;38.90
64549;DHT22;49838;51.798;10.954;2024-03-07T12:20:35;15.30;39.10
64549;DHT22;49838;51.798;10.954;2024-03-07T12:23:04;15.20;37.60
64549;DHT22;49838;51.798;10.954;2024-03-07T12:25:34;15.20;38.50
64549;DHT22;49838;51.798;10.954;2024-03-07T12:28:03;15.20;38.00
64549;DHT22;49838;51.798;10.954;2024-03-07T12:30:32;15.40;38.90
64549;DHT22;49838;51.798;10.954;2024-03-07T12:33:01;15.50;39.30
64549;DHT22;49838;51.798;10.954;2024-03-07T12:35:30;15.60;37.30
64549;DHT22;49838;51.798;10.954;2024-03-07T12:37:58;15.50;37.90
64549;DHT22;49838;51.798;10.954;2024-03-07T12:40:27;15.40;37.20
64549;DHT22;49838;51.798;10.954;2024-03-07T12:42:59;15.30;36.80
64549;DHT22;49838;51.798;10.954;2024-03-07T12:45:28;15.20;36.60
64549;DHT22;49838;51.798;10.954;2024-03-07T12:47:59;15.20;36.90
64549;DHT22;49838;51.798;10.954;2024-03-07T12:50:30;15.10;36.20
64549;DHT22;49838;51.798;10.954;2024-03-07T12:53:00;15.10;36.90
64549;DHT22;49838;51.798;10.954;2024-03-07T12:55:32;15.10;36.30
64549;DHT22;49838;51.798;10.954;2024-03-07T12:58:02;15.00;35.80
64549;DHT22;49838;51.798;10.954;2024-03-07T13:00:30;15.00;36.30
64549;DHT22;49838;51.798;10.954;2024-03-07T13:02:57;14.90;36.10
64549;DHT22;49838;51.798;10.954;2024-03-07T13:05:25;14.90;36.70
64549;DHT22;49838;51.798;10.954;2024-03-07T13:07:52;14.70;36.00
64549;DHT22;49838;51.798;10.954;2024-03-07T13:10:20;14.70;36.70
64549;DHT22;49838;51.798;10.954;2024-03-07T13:12:48;14.60;36.40
64549;DHT22;49838;51.798;10.954;2024-03-07T13:15:16;14.40;36.10
64549;DHT22;49838;51.798;10.954;2024-03-07T13:17:43;14.20;36.20
64549;DHT22;49838;51.798;10.954;2024-03-07T13:20:11;14.10;36.20
64549;DHT22;49838;51.798;10.954;2024-03-07T13:22:40;14.20;37.10
64549;DHT22;49838;51.798;10.954;2024-03-07T13:25:09;14.20;37.10
64549;DHT22;49838;51.798;10.954;2024-03-07T13:27:43;14.30;37.20
64549;DHT22;49838;51.798;10.954;2024-03-07T13:30:19;14.40;37.60
64549;DHT22;49838;51.798;10.954;2024-03-07T13:32:49;14.40;36.90
64549;DHT22;49838;51.798;10.954;2024-03-07T13:35:19;14.40;37.10
64549;DHT22;49838;51.798;10.954;2024-03-07T13:37:47;14.30;36.70
64549;DHT22;49838;51.798;10.954;2024-03-07T13:40:15;14.20;36.50
64549;DHT22;49838;51.798;10.954;2024-03-07T13:42:52;14.10;36.40
64549;DHT22;49838;51.798;10.954;2024-03-07T13:45:23;14.00;36.40
64549;DHT22;49838;51.798;10.954;2024-03-07T13:47:52;14.10;36.40
64549;DHT22;49838;51.798;10.954;2024-03-07T13:50:21;14.10;36.70
64549;DHT22;49838;51.798;10.954;2024-03-07T13:52:50;14.00;37.00
64549;DHT22;49838;51.798;10.954;2024-03-07T13:55:40;14.10;37.10
64549;DHT22;49838;51.798;10.954;2024-03-07T13:58:17;14.10;37.40
64549;DHT22;49838;51.798;10.954;2024-03-07T14:01:00;14.00;35.20
64549;DHT22;49838;51.798;10.954;2024-03-07T14:04:01;13.80;36.10
64549;DHT22;49838;51.798;10.954;2024-03-07T14:06:54;13.70;36.20
64549;DHT22;49838;51.798;10.954;2024-03-07T14:09:42;13.80;36.70
64549;DHT22;49838;51.798;10.954;2024-03-07T14:12:21;13.80;36.80
64549;DHT22;49838;51.798;10.954;2024-03-07T14:18:15;13.60;36.60
64549;DHT22;49838;51.798;10.954;2024-03-07T14:21:00;13.60;36.90
64549;DHT22;49838;51.798;10.954;2024-03-07T14:23:46;13.60;37.10
64549;DHT22;49838;51.798;10.954;2024-03-07T14:26:45;13.50;36.90
64549;DHT22;49838;51.798;10.954;2024-03-07T14:29:29;13.40;36.80
64549;DHT22;49838;51.798;10.954;2024-03-07T14:32:09;13.20;36.30
64549;DHT22;49838;51.798;10.954;2024-03-07T14:34:45;13.20;36.00
64549;DHT22;49838;51.798;10.954;2024-03-07T14:37:22;13.10;36.20
64549;DHT22;49838;51.798;10.954;2024-03-07T14:39:52;13.20;36.80
64549;DHT22;49838;51.798;10.954;2024-03-07T14:42:36;13.30;37.10
64549;DHT22;49838;51.798;10.954;2024-03-07T14:45:04;13.40;37.40
64549;DHT22;49838;51.798;10.954;2024-03-07T14:47:33;13.40;37.40
64549;DHT22;49838;51.798;10.954;2024-03-07T14:50:02;13.30;37.10
64549;DHT22;49838;51.798;10.954;2024-03-07T14:52:30;13.30;37.00
64549;DHT22;49838;51.798;10.954;2024-03-07T14:54:57;13.20;36.70
64549;DHT22;49838;51.798;10.954;2024-03-07T14:57:25;13.10;36.60
64549;DHT22;49838;51.798;10.954;2024-03-07T14:59:52;13.10;36.70
64549;DHT22;49838;51.798;10.954;2024-03-07T15:02:20;13.00;36.60
64549;DHT22;49838;51.798;10.954;2024-03-07T15:04:48;13.00;36.80
64549;DHT22;49838;51.798;10.954;2024-03-07T15:07:16;13.00;37.10
64549;DHT22;49838;51.798;10.954;2024-03-07T15:09:48;13.00;36.80
64549;DHT22;49838;51.798;10.954;2024-03-07T15:12:15;13.00;37.30
64549;DHT22;49838;51.798;10.954;2024-03-07T15:14:43;12.90;36.90
64549;DHT22;49838;51.798;10.954;2024-03-07T15:17:10;12.90;37.20
64549;DHT22;49838;51.798;10.954;2024-03-07T15:19:37;12.80;36.60
64549;DHT22;49838;51.798;10.954;2024-03-07T15:22:04;12.70;36.60
64549;DHT22;49838;51.798;10.954;2024-03-07T15:24:34;12.80;36.90
64549;DHT22;49838;51.798;10.954;2024-03-07T15:27:02;12.70;36.80
64549;DHT22;49838;51.798;10.954;2024-03-07T15:29:30;12.70;36.60
64549;DHT22;49838;51.798;10.954;2024-03-07T15:31:57;12.60;36.10
64549;DHT22;49838;51.798;10.954;2024-03-07T15:34:25;12.60;36.70